createdAt,value
2022-09-28T00:02:37.632Z,7.03
2022-09-28T00:05:27.021Z,7.03
2022-09-28T00:08:15.385Z,7.02
2022-09-28T00:11:08.272Z,7.04
2022-09-28T00:14:00.020Z,7.01
2022-09-28T00:16:48.688Z,7.03
2022-09-28T00:19:36.432Z,7.06
2022-09-28T00:22:24.312Z,7.05
2022-09-28T00:25:11.913Z,7.03
2022-09-28T00:28:00.874Z,7.01
2022-09-28T00:30:48.307Z,7.03
2022-09-28T00:33:35.974Z,7.03
2022-09-28T00:36:23.646Z,7.04
2022-09-28T00:39:11.931Z,7.02
2022-09-28T00:42:00.586Z,7.02
2022-09-28T00:44:54.148Z,7.01
2022-09-28T00:47:49.900Z,7.01
2022-09-28T00:50:40.169Z,7.04
2022-09-28T00:53:32.817Z,7.05
2022-09-28T00:56:25.991Z,7.09
2022-09-28T00:59:13.778Z,7.11
2022-09-28T01:02:03.977Z,7.12
2022-09-28T01:04:53.379Z,7.15
2022-09-28T01:07:42.308Z,7.17
2022-09-28T01:10:32.227Z,7.18
2022-09-28T01:13:22.583Z,7.19
2022-09-28T01:16:20.619Z,7.20
2022-09-28T01:19:36.652Z,7.20
2022-09-28T01:22:59.951Z,7.23
2022-09-28T01:25:56.269Z,7.24
2022-09-28T01:28:50.466Z,7.26
2022-09-28T01:31:42.643Z,7.27
2022-09-28T01:34:40.624Z,7.29
2022-09-28T01:37:38.648Z,7.33
2022-09-28T01:40:31.413Z,7.34
2022-09-28T01:43:25.497Z,7.35
2022-09-28T01:46:21.042Z,7.37
2022-09-28T01:49:18.839Z,7.39
2022-09-28T01:52:16.566Z,7.38
2022-09-28T01:55:13.261Z,7.39
2022-09-28T01:58:10.976Z,7.42
2022-09-28T02:01:11.352Z,7.41
2022-09-28T02:04:08.881Z,7.42
2022-09-28T02:07:03.543Z,7.44
2022-09-28T02:09:58.755Z,7.45
2022-09-28T02:12:52.582Z,7.45
2022-09-28T02:15:50.360Z,7.45
2022-09-28T02:18:38.198Z,7.45
2022-09-28T02:21:33.504Z,7.45
2022-09-28T02:24:29.979Z,7.46
2022-09-28T02:27:32.973Z,7.46
2022-09-28T02:30:21.783Z,7.46
2022-09-28T02:33:17.762Z,7.47
2022-09-28T02:36:05.785Z,7.46
2022-09-28T02:38:55.395Z,7.46
2022-09-28T02:42:00.705Z,7.47
2022-09-28T02:45:07.735Z,7.47
2022-09-28T02:48:14.109Z,7.47
2022-09-28T02:51:16.193Z,7.47
2022-09-28T02:54:32.283Z,7.48
2022-09-28T02:57:39.007Z,7.49
2022-09-28T03:00:28.026Z,7.48
2022-09-28T03:03:25.256Z,7.50
2022-09-28T03:06:24.220Z,7.50
2022-09-28T03:09:22.554Z,7.50
2022-09-28T03:12:15.502Z,7.51
2022-09-28T03:15:13.861Z,7.51
2022-09-28T03:18:01.516Z,7.51
2022-09-28T03:20:50.100Z,7.50
2022-09-28T03:23:38.087Z,7.52
2022-09-28T03:26:27.109Z,7.52
2022-09-28T03:29:15.287Z,7.53
2022-09-28T03:32:03.616Z,7.53
2022-09-28T03:34:51.712Z,7.53
2022-09-28T03:37:39.177Z,7.53
2022-09-28T03:40:26.839Z,7.54
2022-09-28T03:43:15.969Z,7.55
2022-09-28T03:46:04.772Z,7.55
2022-09-28T03:48:52.664Z,7.56
2022-09-28T03:51:40.935Z,7.56
2022-09-28T03:54:28.610Z,7.56
2022-09-28T03:57:16.478Z,7.56
2022-09-28T04:00:07.476Z,7.57
2022-09-28T04:02:55.886Z,7.58
2022-09-28T04:05:51.766Z,7.57
2022-09-28T04:08:40.056Z,7.57
2022-09-28T04:11:34.937Z,7.60
2022-09-28T04:14:30.323Z,7.60
2022-09-28T04:17:19.185Z,7.60
2022-09-28T04:20:09.029Z,7.61
2022-09-28T04:22:59.346Z,7.62
2022-09-28T04:25:53.481Z,7.61
2022-09-28T04:29:01.651Z,7.62
2022-09-28T04:31:56.212Z,7.64
2022-09-28T04:34:45.529Z,7.66
2022-09-28T04:37:33.852Z,7.68
2022-09-28T04:40:21.527Z,7.70
2022-09-28T04:43:10.566Z,7.71
2022-09-28T04:46:01.575Z,7.72
2022-09-28T04:48:49.087Z,7.73
2022-09-28T04:51:38.088Z,7.73
2022-09-28T04:54:25.856Z,7.74
2022-09-28T04:57:15.621Z,7.75
2022-09-28T05:00:04.133Z,7.76
2022-09-28T05:02:51.901Z,7.76
2022-09-28T05:05:45.482Z,7.77
2022-09-28T05:08:36.159Z,7.79
2022-09-28T05:11:24.305Z,7.81
2022-09-28T05:14:13.285Z,7.82
2022-09-28T05:17:02.563Z,7.83
2022-09-28T05:19:53.310Z,7.84
2022-09-28T05:22:41.028Z,7.84
2022-09-28T05:25:29.905Z,7.86
2022-09-28T05:28:27.228Z,7.87
2022-09-28T05:31:17.720Z,7.89
2022-09-28T05:34:05.647Z,7.90
2022-09-28T05:36:53.326Z,7.89
2022-09-28T05:39:40.830Z,7.91
2022-09-28T05:42:33.250Z,7.93
2022-09-28T05:45:23.130Z,7.95
2022-09-28T05:48:11.151Z,7.97
2022-09-28T05:51:01.902Z,7.99
2022-09-28T05:53:51.792Z,7.99
2022-09-28T05:56:39.635Z,8.01
2022-09-28T05:59:30.246Z,8.05
2022-09-28T06:02:17.991Z,8.07
2022-09-28T06:05:06.462Z,8.10
2022-09-28T06:07:56.165Z,8.13
2022-09-28T06:10:43.605Z,8.17
2022-09-28T06:13:32.106Z,8.22
2022-09-28T06:16:21.315Z,8.26
2022-09-28T06:19:10.563Z,8.29
2022-09-28T06:21:59.441Z,8.33
2022-09-28T06:24:47.482Z,8.35
2022-09-28T06:27:35.961Z,8.39
2022-09-28T06:30:24.268Z,8.43
2022-09-28T06:33:15.468Z,8.47
2022-09-28T06:36:05.829Z,8.48
2022-09-28T06:38:53.400Z,8.54
2022-09-28T06:41:41.039Z,8.61
2022-09-28T06:44:29.073Z,8.67
2022-09-28T06:47:17.706Z,8.71
2022-09-28T06:50:14.438Z,8.76
2022-09-28T06:53:03.226Z,8.79
2022-09-28T06:55:52.190Z,8.84
2022-09-28T06:58:40.041Z,8.90
2022-09-28T07:01:27.618Z,8.97
2022-09-28T07:04:15.519Z,8.99
2022-09-28T07:07:04.807Z,9.04
2022-09-28T07:09:55.925Z,9.11
2022-09-28T07:12:43.715Z,9.12
2022-09-28T07:15:32.167Z,9.16
2022-09-28T07:18:20.079Z,9.20
2022-09-28T07:21:11.714Z,9.24
2022-09-28T07:24:02.350Z,9.27
2022-09-28T07:26:58.448Z,9.36
2022-09-28T07:29:46.011Z,9.38
2022-09-28T07:32:37.474Z,9.43
2022-09-28T07:35:26.787Z,9.47
2022-09-28T07:38:15.846Z,9.53
2022-09-28T07:41:14.272Z,9.58
2022-09-28T07:44:06.101Z,9.64
2022-09-28T07:46:54.547Z,9.70
2022-09-28T07:49:42.329Z,9.75
2022-09-28T07:52:31.942Z,9.80
2022-09-28T07:55:19.657Z,9.82
2022-09-28T07:58:08.891Z,9.82
2022-09-28T08:00:56.581Z,9.84
2022-09-28T08:03:47.195Z,9.85
2022-09-28T08:06:34.824Z,9.88
2022-09-28T08:09:22.362Z,9.91
2022-09-28T08:12:09.934Z,9.95
2022-09-28T08:15:00.184Z,10.00
2022-09-28T08:17:48.668Z,10.06
2022-09-28T08:20:54.627Z,10.10
2022-09-28T08:23:42.133Z,10.11
2022-09-28T08:26:29.995Z,10.09
2022-09-28T08:29:17.499Z,10.12
2022-09-28T08:32:08.552Z,10.16
2022-09-28T08:34:57.065Z,10.17
2022-09-28T08:37:54.621Z,10.20
2022-09-28T08:41:03.749Z,10.29
2022-09-28T08:44:13.779Z,10.36
2022-09-28T08:47:08.423Z,10.42
2022-09-28T08:49:56.936Z,10.47
2022-09-28T08:52:52.676Z,10.55
2022-09-28T08:55:41.697Z,10.61
2022-09-28T08:58:38.733Z,10.66
2022-09-28T09:01:36.861Z,10.77
2022-09-28T09:04:26.434Z,10.91
2022-09-28T09:07:48.353Z,11.10
2022-09-28T09:10:53.223Z,11.26
2022-09-28T09:14:36.958Z,11.48
2022-09-28T09:17:40.627Z,11.72
2022-09-28T09:20:43.434Z,11.91
2022-09-28T09:23:38.424Z,12.11
2022-09-28T09:26:39.218Z,12.47
2022-09-28T09:29:46.713Z,12.83
2022-09-28T09:32:58.437Z,13.07
2022-09-28T09:36:21.279Z,13.19
2022-09-28T09:39:28.976Z,13.28
2022-09-28T09:42:39.979Z,13.38
2022-09-28T09:45:46.503Z,13.61
2022-09-28T09:48:44.633Z,13.83
2022-09-28T09:51:44.739Z,14.00
2022-09-28T09:54:40.829Z,14.18
2022-09-28T09:57:40.506Z,14.21
2022-09-28T10:01:02.631Z,14.28
2022-09-28T10:03:51.132Z,14.30
2022-09-28T10:06:44.686Z,14.18
2022-09-28T10:09:39.083Z,14.15
2022-09-28T10:12:27.779Z,14.06
2022-09-28T10:15:23.122Z,14.06
2022-09-28T10:18:20.232Z,13.93
2022-09-28T10:21:08.535Z,13.84
2022-09-28T10:24:02.553Z,13.87
2022-09-28T10:26:55.803Z,13.86
2022-09-28T10:29:56.301Z,13.86
2022-09-28T10:32:48.876Z,13.95
2022-09-28T10:35:44.289Z,14.06
2022-09-28T10:38:33.883Z,14.09
2022-09-28T10:41:23.265Z,14.22
2022-09-28T10:44:20.809Z,14.46
2022-09-28T10:47:18.865Z,14.70
2022-09-28T10:50:22.467Z,14.94
2022-09-28T10:53:20.628Z,14.98
2022-09-28T10:56:21.470Z,15.13
2022-09-28T10:59:35.944Z,15.27
2022-09-28T11:02:30.341Z,15.28
2022-09-28T11:05:27.964Z,15.46
2022-09-28T11:08:28.274Z,15.38
2022-09-28T11:11:19.421Z,15.48
2022-09-28T11:14:25.854Z,15.64
2022-09-28T11:17:18.502Z,15.87
2022-09-28T11:20:30.592Z,16.03
2022-09-28T11:23:31.109Z,16.24
2022-09-28T11:26:19.276Z,16.66
2022-09-28T11:29:08.780Z,16.99
2022-09-28T11:32:04.242Z,17.16
2022-09-28T11:34:59.657Z,17.23
2022-09-28T11:38:01.910Z,17.28
2022-09-28T11:40:58.034Z,17.21
2022-09-28T11:44:07.909Z,17.15
2022-09-28T11:47:12.912Z,17.17
2022-09-28T11:50:07.617Z,17.25
2022-09-28T11:53:03.992Z,17.33
2022-09-28T11:55:57.365Z,17.34
2022-09-28T11:58:49.137Z,17.38
2022-09-28T12:01:43.331Z,17.34
2022-09-28T12:04:38.575Z,17.20
2022-09-28T12:07:32.910Z,17.26
2022-09-28T12:10:28.253Z,17.27
2022-09-28T12:13:20.235Z,17.30
2022-09-28T12:16:38.456Z,17.39
2022-09-28T12:19:23.888Z,17.51
2022-09-28T12:22:19.251Z,17.53
2022-09-28T12:25:15.161Z,17.56
2022-09-28T12:28:08.068Z,17.74
2022-09-28T12:30:58.461Z,17.90
2022-09-28T12:33:49.805Z,18.11
2022-09-28T12:36:51.937Z,18.16
2022-09-28T12:39:58.068Z,18.24
2022-09-28T12:43:04.303Z,18.20
2022-09-28T12:46:12.686Z,18.42
2022-09-28T12:55:56.446Z,18.75
2022-09-28T12:59:00.918Z,18.75
2022-09-28T13:02:10.519Z,18.65
2022-09-28T13:05:19.894Z,18.61
2022-09-28T13:08:15.403Z,18.53
2022-09-28T13:11:15.630Z,18.55
2022-09-28T13:14:26.095Z,18.56
2022-09-28T13:17:26.890Z,18.49
2022-09-28T13:20:32.298Z,18.52
2022-09-28T13:23:24.771Z,18.52
2022-09-28T13:26:25.271Z,18.54
2022-09-28T13:29:15.656Z,18.56
2022-09-28T13:32:05.320Z,18.58
2022-09-28T13:34:54.767Z,18.55
2022-09-28T13:37:43.124Z,18.50
2022-09-28T13:41:11.963Z,18.47
2022-09-28T13:45:06.492Z,18.33
2022-09-28T13:48:12.918Z,18.14
2022-09-28T13:51:24.679Z,18.02
2022-09-28T13:54:41.692Z,18.07
2022-09-28T13:57:42.590Z,17.98
2022-09-28T14:00:36.993Z,17.82
2022-09-28T14:03:44.902Z,17.81
2022-09-28T14:06:34.044Z,17.82
2022-09-28T14:09:45.490Z,17.79
2022-09-28T14:12:49.642Z,17.72
2022-09-28T14:15:46.168Z,17.61
2022-09-28T14:18:37.466Z,17.59
2022-09-28T14:22:02.692Z,17.50
2022-09-28T14:25:15.105Z,17.27
2022-09-28T14:28:23.202Z,17.08
2022-09-28T14:31:25.229Z,16.91
2022-09-28T14:34:39.132Z,16.74
2022-09-28T14:37:50.340Z,16.60
2022-09-28T14:41:10.886Z,16.42
2022-09-28T14:44:08.036Z,16.34
2022-09-28T14:47:27.264Z,16.43
2022-09-28T14:50:27.664Z,16.53
2022-09-28T14:53:24.737Z,16.61
2022-09-28T14:56:15.715Z,16.59
2022-09-28T14:59:03.932Z,16.55
2022-09-28T15:02:00.622Z,16.60
2022-09-28T15:04:53.307Z,16.68
2022-09-28T15:07:48.134Z,16.75
2022-09-28T15:10:41.807Z,16.86
2022-09-28T15:13:30.681Z,16.90
2022-09-28T15:16:20.564Z,16.93
2022-09-28T15:19:26.654Z,16.89
2022-09-28T15:22:18.480Z,16.68
2022-09-28T15:25:16.440Z,16.63
2022-09-28T15:28:22.988Z,16.52
2022-09-28T15:31:20.107Z,16.44
2022-09-28T15:34:44.580Z,16.30
2022-09-28T15:37:40.693Z,16.25
2022-09-28T15:40:34.840Z,16.18
2022-09-28T15:43:29.004Z,16.07
2022-09-28T15:46:21.833Z,15.96
2022-09-28T15:49:25.574Z,15.82
2022-09-28T15:52:40.863Z,15.67
2022-09-28T15:55:34.221Z,15.53
2022-09-28T15:58:24.817Z,15.32
2022-09-28T16:01:37.777Z,15.17
2022-09-28T16:04:39.012Z,15.04
2022-09-28T16:07:38.469Z,14.93
2022-09-28T16:10:37.623Z,14.86
2022-09-28T16:13:25.817Z,14.69
2022-09-28T16:16:17.887Z,14.55
2022-09-28T16:19:07.210Z,14.45
2022-09-28T16:21:58.019Z,14.32
2022-09-28T16:24:56.945Z,14.22
2022-09-28T16:27:46.704Z,14.07
2022-09-28T16:30:35.856Z,13.95
2022-09-28T16:33:30.984Z,13.83
2022-09-28T16:36:20.395Z,13.73
2022-09-28T16:39:09.621Z,13.62
2022-09-28T16:42:03.664Z,13.52
2022-09-28T16:44:53.073Z,13.39
2022-09-28T16:47:41.492Z,13.28
2022-09-28T16:50:29.121Z,13.18
2022-09-28T16:53:36.229Z,13.08
2022-09-28T16:56:23.543Z,12.96
2022-09-28T16:59:13.764Z,12.86
2022-09-28T17:02:03.647Z,12.76
2022-09-28T17:04:51.323Z,12.67
2022-09-28T17:07:38.988Z,12.57
2022-09-28T17:10:45.086Z,12.45
2022-09-28T17:13:44.125Z,12.36
2022-09-28T17:17:02.335Z,12.27
2022-09-28T17:19:43.079Z,12.18
2022-09-28T17:22:30.524Z,12.10
2022-09-28T17:25:19.044Z,12.01
2022-09-28T17:28:07.452Z,11.93
2022-09-28T17:30:55.776Z,11.86
2022-09-28T17:33:43.277Z,11.79
2022-09-28T17:36:32.411Z,11.71
2022-09-28T17:39:20.665Z,11.63
2022-09-28T17:42:08.387Z,11.54
2022-09-28T17:44:55.746Z,11.44
2022-09-28T17:47:43.531Z,11.36
2022-09-28T17:50:34.900Z,11.25
2022-09-28T17:53:23.943Z,11.14
2022-09-28T17:56:12.064Z,11.08
2022-09-28T17:59:03.015Z,10.98
2022-09-28T18:01:50.745Z,10.89
2022-09-28T18:04:51.861Z,10.82
2022-09-28T18:07:44.194Z,10.75
2022-09-28T18:10:36.018Z,10.67
2022-09-28T18:13:24.073Z,10.60
2022-09-28T18:16:11.840Z,10.51
2022-09-28T18:19:00.308Z,10.46
2022-09-28T18:21:48.200Z,10.39
2022-09-28T18:24:35.693Z,10.31
2022-09-28T18:27:24.629Z,10.23
2022-09-28T18:30:12.996Z,10.15
2022-09-28T18:33:00.647Z,10.09
2022-09-28T18:35:55.600Z,10.01
2022-09-28T18:38:55.792Z,9.94
2022-09-28T18:41:43.787Z,9.88
2022-09-28T18:44:32.958Z,9.84
2022-09-28T18:47:20.561Z,9.78
2022-09-28T18:50:09.390Z,9.72
2022-09-28T18:53:11.300Z,9.69
2022-09-28T18:55:58.949Z,9.67
2022-09-28T18:58:48.362Z,9.62
2022-09-28T19:01:38.131Z,9.57
2022-09-28T19:04:25.816Z,9.51
2022-09-28T19:07:13.580Z,9.47
2022-09-28T19:10:00.991Z,9.43
2022-09-28T19:12:48.371Z,9.35
2022-09-28T19:15:36.130Z,9.28
2022-09-28T19:18:25.194Z,9.21
2022-09-28T19:21:15.285Z,9.16
2022-09-28T19:24:04.328Z,9.07
2022-09-28T19:26:53.415Z,9.00
2022-09-28T19:29:41.096Z,8.92
2022-09-28T19:32:29.890Z,8.86
2022-09-28T19:35:18.644Z,8.79
2022-09-28T19:38:06.194Z,8.73
2022-09-28T19:40:53.800Z,8.67
2022-09-28T19:43:42.194Z,8.58
2022-09-28T19:46:31.231Z,8.50
2022-09-28T19:49:22.055Z,8.42
2022-09-28T19:52:17.004Z,8.33
2022-09-28T19:55:05.307Z,8.28
2022-09-28T19:57:52.713Z,8.23
2022-09-28T20:00:40.319Z,8.18
2022-09-28T20:03:28.308Z,8.11
2022-09-28T20:06:17.503Z,8.05
2022-09-28T20:09:07.484Z,7.95
2022-09-28T20:11:58.021Z,7.89
2022-09-28T20:14:45.663Z,7.83
2022-09-28T20:17:33.079Z,7.78
2022-09-28T20:20:20.610Z,7.73
2022-09-28T20:23:08.010Z,7.64
2022-09-28T20:25:56.826Z,7.59
2022-09-28T20:28:45.132Z,7.54
2022-09-28T20:31:32.821Z,7.53
2022-09-28T20:34:20.669Z,7.47
2022-09-28T20:37:08.100Z,7.46
2022-09-28T20:39:55.620Z,7.44
2022-09-28T20:42:45.757Z,7.40
2022-09-28T20:45:35.653Z,7.37
2022-09-28T20:48:24.597Z,7.35
2022-09-28T20:51:15.278Z,7.34
2022-09-28T20:54:03.202Z,7.34
2022-09-28T20:56:51.185Z,7.30
2022-09-28T20:59:40.666Z,7.29
2022-09-28T21:02:28.496Z,7.25
2022-09-28T21:05:15.940Z,7.22
2022-09-28T21:08:03.954Z,7.18
2022-09-28T21:10:53.244Z,7.17
2022-09-28T21:13:42.895Z,7.14
2022-09-28T21:16:34.011Z,7.12
2022-09-28T21:19:22.423Z,7.09
2022-09-28T21:22:10.148Z,7.06
2022-09-28T21:24:57.589Z,7.02
2022-09-28T21:27:45.929Z,6.99
2022-09-28T21:30:33.802Z,6.94
2022-09-28T21:33:22.704Z,6.89
2022-09-28T21:36:11.655Z,6.85
2022-09-28T21:38:59.096Z,6.80
2022-09-28T21:41:46.580Z,6.78
2022-09-28T21:44:34.414Z,6.71
2022-09-28T21:47:22.052Z,6.66
2022-09-28T21:50:11.443Z,6.60
2022-09-28T21:52:59.195Z,6.57
2022-09-28T21:55:47.000Z,6.53
2022-09-28T21:58:36.947Z,6.48
2022-09-28T22:01:26.223Z,6.42
2022-09-28T22:04:13.818Z,6.38
2022-09-28T22:07:02.725Z,6.33
2022-09-28T22:09:53.378Z,6.29
2022-09-28T22:12:41.893Z,6.25
2022-09-28T22:15:29.221Z,6.21
2022-09-28T22:18:16.549Z,6.17
2022-09-28T22:21:07.554Z,6.14
2022-09-28T22:24:01.189Z,6.09
2022-09-28T22:26:48.930Z,6.06
2022-09-28T22:29:36.909Z,6.03
2022-09-28T22:32:26.025Z,5.99
2022-09-28T22:35:13.573Z,5.94
2022-09-28T22:38:01.094Z,5.93
2022-09-28T22:40:51.245Z,5.90
2022-09-28T22:43:38.991Z,5.87
2022-09-28T22:46:29.128Z,5.82
2022-09-28T22:49:17.173Z,5.80
2022-09-28T22:52:05.129Z,5.76
2022-09-28T22:54:53.887Z,5.72
2022-09-28T22:57:42.507Z,5.66
2022-09-28T23:00:30.659Z,5.63
2022-09-28T23:03:18.862Z,5.60
2022-09-28T23:06:07.563Z,5.56
2022-09-28T23:08:55.193Z,5.51
2022-09-28T23:11:42.762Z,5.47
2022-09-28T23:14:31.546Z,5.44
2022-09-28T23:17:19.043Z,5.41
2022-09-28T23:20:07.444Z,5.37
2022-09-28T23:22:54.829Z,5.34
2022-09-28T23:25:42.117Z,5.29
2022-09-28T23:28:29.779Z,5.26
2022-09-28T23:31:22.146Z,5.22
2022-09-28T23:34:11.792Z,5.22
2022-09-28T23:37:01.872Z,5.19
2022-09-28T23:39:50.213Z,5.17
2022-09-28T23:42:37.766Z,5.16
2022-09-28T23:45:25.284Z,5.13
2022-09-28T23:48:15.003Z,5.11
2022-09-28T23:51:03.515Z,5.07
2022-09-28T23:53:51.154Z,5.07
2022-09-28T23:56:38.600Z,5.05
2022-09-28T23:59:26.119Z,5.02
